sensor_id;sensor_type;location;lat;lon;timestamp;pressure;altitude;pressure_sealevel;temperature;humidity
71145;BME280;58812;47.698;17.726;2023-09-08T00:02:27;100850.53;;;14.06;100.00
71145;BME280;58812;47.698;17.726;2023-09-08T00:04:53;100846.63;;;14.01;100.00
71145;BME280;58812;47.698;17.726;2023-09-08T00:07:19;100848.47;;;14.00;100.00
71145;BME280;58812;47.698;17.726;2023-09-08T00:09:44;100841.06;;;14.02;100.00
71145;BME280;58812;47.698;17.726;2023-09-08T00:12:10;100853.84;;;14.00;100.00
71145;BME280;58812;47.698;17.726;2023-09-08T00:14:35;100858.69;;;13.97;100.00
71145;BME280;58812;47.698;17.726;2023-09-08T00:17:00;100849.09;;;13.94;100.00
71145;BME280;58812;47.698;17.726;2023-09-08T00:19:26;100852.91;;;13.92;100.00
71145;BME280;58812;47.698;17.726;2023-09-08T00:21:51;100848.38;;;13.92;100.00
71145;BME280;58812;47.698;17.726;2023-09-08T00:24:18;100840.63;;;13.89;100.00
71145;BME280;58812;47.698;17.726;2023-09-08T00:26:43;100845.28;;;13.87;100.00
71145;BME280;58812;47.698;17.726;2023-09-08T00:29:09;100847.00;;;13.88;100.00
71145;BME280;58812;47.698;17.726;2023-09-08T00:31:34;100851.69;;;13.86;100.00
71145;BME280;58812;47.698;17.726;2023-09-08T00:33:59;100841.53;;;13.80;100.00
71145;BME280;58812;47.698;17.726;2023-09-08T00:36:25;100841.53;;;13.80;100.00
71145;BME280;58812;47.698;17.726;2023-09-08T00:38:50;100836.16;;;13.80;100.00
71145;BME280;58812;47.698;17.726;2023-09-08T00:41:16;100839.53;;;13.82;100.00
71145;BME280;58812;47.698;17.726;2023-09-08T00:43:41;100832.78;;;13.78;100.00
71145;BME280;58812;47.698;17.726;2023-09-08T00:46:07;100836.47;;;13.77;100.00
71145;BME280;58812;47.698;17.726;2023-09-08T00:48:33;100830.75;;;13.80;100.00
71145;BME280;58812;47.698;17.726;2023-09-08T00:51:00;100830.09;;;13.78;100.00
71145;BME280;58812;47.698;17.726;2023-09-08T00:53:26;100824.84;;;13.76;100.00
71145;BME280;58812;47.698;17.726;2023-09-08T00:55:51;100819.25;;;13.70;100.00
71145;BME280;58812;47.698;17.726;2023-09-08T00:58:17;100822.63;;;13.72;100.00
71145;BME280;58812;47.698;17.726;2023-09-08T01:00:43;100821.94;;;13.70;100.00
71145;BME280;58812;47.698;17.726;2023-09-08T01:03:11;100828.28;;;13.69;100.00
71145;BME280;58812;47.698;17.726;2023-09-08T01:05:36;100829.00;;;13.71;100.00
71145;BME280;58812;47.698;17.726;2023-09-08T01:08:02;100838.09;;;13.70;100.00
71145;BME280;58812;47.698;17.726;2023-09-08T01:10:28;100833.84;;;13.67;100.00
71145;BME280;58812;47.698;17.726;2023-09-08T01:12:53;100823.22;;;13.66;100.00
71145;BME280;58812;47.698;17.726;2023-09-08T01:15:18;100818.84;;;13.65;100.00
71145;BME280;58812;47.698;17.726;2023-09-08T01:17:44;100826.94;;;13.65;100.00
71145;BME280;58812;47.698;17.726;2023-09-08T01:20:22;100818.62;;;13.58;100.00
71145;BME280;58812;47.698;17.726;2023-09-08T01:26:25;100819.91;;;13.54;100.00
71145;BME280;58812;47.698;17.726;2023-09-08T01:28:26;100817.50;;;13.51;100.00
71145;BME280;58812;47.698;17.726;2023-09-08T01:30:52;100813.81;;;13.52;100.00
71145;BME280;58812;47.698;17.726;2023-09-08T01:33:19;100808.69;;;13.41;100.00
71145;BME280;58812;47.698;17.726;2023-09-08T01:35:46;100813.59;;;13.45;100.00
71145;BME280;58812;47.698;17.726;2023-09-08T01:38:11;100810.91;;;13.45;100.00
71145;BME280;58812;47.698;17.726;2023-09-08T01:40:37;100814.06;;;13.41;100.00
71145;BME280;58812;47.698;17.726;2023-09-08T01:43:02;100814.34;;;13.38;100.00
71145;BME280;58812;47.698;17.726;2023-09-08T01:45:28;100813.22;;;13.40;100.00
71145;BME280;58812;47.698;17.726;2023-09-08T01:47:53;100812.97;;;13.33;100.00
71145;BME280;58812;47.698;17.726;2023-09-08T01:50:18;100809.59;;;13.31;100.00
71145;BME280;58812;47.698;17.726;2023-09-08T01:52:49;100803.66;;;13.28;100.00
71145;BME280;58812;47.698;17.726;2023-09-08T01:55:14;100816.41;;;13.26;100.00
71145;BME280;58812;47.698;17.726;2023-09-08T01:57:41;100813.03;;;13.24;100.00
71145;BME280;58812;47.698;17.726;2023-09-08T02:00:07;100811.59;;;13.20;100.00
71145;BME280;58812;47.698;17.726;2023-09-08T02:02:33;100806.22;;;13.20;100.00
71145;BME280;58812;47.698;17.726;2023-09-08T02:04:58;100816.72;;;13.23;100.00
71145;BME280;58812;47.698;17.726;2023-09-08T02:07:24;100814.03;;;13.23;100.00
71145;BME280;58812;47.698;17.726;2023-09-08T02:09:49;100815.00;;;13.22;100.00
71145;BME280;58812;47.698;17.726;2023-09-08T02:12:14;100816.72;;;13.23;100.00
71145;BME280;58812;47.698;17.726;2023-09-08T02:14:40;100816.72;;;13.23;100.00
71145;BME280;58812;47.698;17.726;2023-09-08T02:17:05;100818.41;;;13.24;100.00
71145;BME280;58812;47.698;17.726;2023-09-08T02:19:31;100819.09;;;13.26;100.00
71145;BME280;58812;47.698;17.726;2023-09-08T02:21:57;100805.53;;;13.18;100.00
71145;BME280;58812;47.698;17.726;2023-09-08T02:24:22;100814.19;;;13.12;100.00
71145;BME280;58812;47.698;17.726;2023-09-08T02:26:47;100807.13;;;13.10;100.00
71145;BME280;58812;47.698;17.726;2023-09-08T02:29:13;100802.03;;;13.07;100.00
71145;BME280;58812;47.698;17.726;2023-09-08T02:31:38;100811.13;;;13.06;100.00
71145;BME280;58812;47.698;17.726;2023-09-08T02:34:04;100803.03;;;13.06;100.00
71145;BME280;58812;47.698;17.726;2023-09-08T02:36:29;100806.00;;;13.03;100.00
71145;BME280;58812;47.698;17.726;2023-09-08T02:38:55;100810.56;;;13.03;100.00
71145;BME280;58812;47.698;17.726;2023-09-08T02:41:22;100810.72;;;13.01;100.00
71145;BME280;58812;47.698;17.726;2023-09-08T02:43:48;100802.94;;;12.98;100.00
71145;BME280;58812;47.698;17.726;2023-09-08T02:46:14;100812.84;;;12.98;100.00
71145;BME280;58812;47.698;17.726;2023-09-08T02:48:39;100813.00;;;12.96;100.00
71145;BME280;58812;47.698;17.726;2023-09-08T02:51:05;100813.31;;;12.93;100.00
71145;BME280;58812;47.698;17.726;2023-09-08T02:53:30;100807.09;;;12.93;100.00
71145;BME280;58812;47.698;17.726;2023-09-08T02:55:57;100798.16;;;12.92;100.00
71145;BME280;58812;47.698;17.726;2023-09-08T02:58:23;100815.16;;;12.93;100.00
71145;BME280;58812;47.698;17.726;2023-09-08T03:00:48;100806.53;;;12.89;100.00
71145;BME280;58812;47.698;17.726;2023-09-08T03:03:15;100806.37;;;12.91;100.00
71145;BME280;58812;47.698;17.726;2023-09-08T03:05:40;100809.91;;;12.91;100.00
71145;BME280;58812;47.698;17.726;2023-09-08T03:08:06;100802.69;;;12.92;100.00
71145;BME280;58812;47.698;17.726;2023-09-08T03:10:33;100812.34;;;12.84;100.00
71145;BME280;58812;47.698;17.726;2023-09-08T03:13:05;100810.66;;;12.83;100.00
71145;BME280;58812;47.698;17.726;2023-09-08T03:15:31;100808.12;;;12.82;100.00
71145;BME280;58812;47.698;17.726;2023-09-08T03:17:58;100802.75;;;12.82;100.00
71145;BME280;58812;47.698;17.726;2023-09-08T03:20:24;100804.62;;;12.72;100.00
71145;BME280;58812;47.698;17.726;2023-09-08T03:22:51;100807.56;;;12.69;100.00
71145;BME280;58812;47.698;17.726;2023-09-08T03:25:16;100805.88;;;12.68;100.00
71145;BME280;58812;47.698;17.726;2023-09-08T03:27:42;100814.50;;;12.71;100.00
71145;BME280;58812;47.698;17.726;2023-09-08T03:30:07;100808.72;;;12.76;100.00
71145;BME280;58812;47.698;17.726;2023-09-08T03:32:33;100806.72;;;12.78;100.00
71145;BME280;58812;47.698;17.726;2023-09-08T03:34:59;100792.03;;;12.72;100.00
71145;BME280;58812;47.698;17.726;2023-09-08T03:37:24;100811.09;;;12.79;100.00
71145;BME280;58812;47.698;17.726;2023-09-08T03:39:51;100816.31;;;12.80;100.00
71145;BME280;58812;47.698;17.726;2023-09-08T03:42:17;100820.00;;;12.79;100.00
71145;BME280;58812;47.698;17.726;2023-09-08T03:44:42;100819.44;;;12.76;100.00
71145;BME280;58812;47.698;17.726;2023-09-08T03:47:08;100818.31;;;12.69;100.00
71145;BME280;58812;47.698;17.726;2023-09-08T03:49:33;100817.63;;;12.67;100.00
71145;BME280;58812;47.698;17.726;2023-09-08T03:51:58;100820.63;;;12.64;100.00
71145;BME280;58812;47.698;17.726;2023-09-08T03:54:24;100828.28;;;12.59;100.00
71145;BME280;58812;47.698;17.726;2023-09-08T03:56:49;100818.66;;;12.56;100.00
71145;BME280;58812;47.698;17.726;2023-09-08T03:59:15;100823.91;;;12.57;100.00
71145;BME280;58812;47.698;17.726;2023-09-08T04:01:40;100824.59;;;12.60;100.00
71145;BME280;58812;47.698;17.726;2023-09-08T04:04:05;100826.28;;;12.61;100.00
71145;BME280;58812;47.698;17.726;2023-09-08T04:06:31;100825.16;;;12.63;100.00
71145;BME280;58812;47.698;17.726;2023-09-08T04:08:56;100826.97;;;12.63;100.00
71145;BME280;58812;47.698;17.726;2023-09-08T04:11:22;100828.53;;;12.65;100.00
71145;BME280;58812;47.698;17.726;2023-09-08T04:13:47;100826.97;;;12.63;100.00
71145;BME280;58812;47.698;17.726;2023-09-08T04:16:12;100831.38;;;12.64;100.00
71145;BME280;58812;47.698;17.726;2023-09-08T04:18:38;100828.69;;;12.64;100.00
71145;BME280;58812;47.698;17.726;2023-09-08T04:21:06;100824.84;;;12.66;100.00
71145;BME280;58812;47.698;17.726;2023-09-08T04:23:32;100824.56;;;12.69;100.00
71145;BME280;58812;47.698;17.726;2023-09-08T04:25:57;100826.53;;;12.67;100.00
71145;BME280;58812;47.698;17.726;2023-09-08T04:28:23;100822.31;;;12.65;100.00
71145;BME280;58812;47.698;17.726;2023-09-08T04:30:48;100826.00;;;12.64;100.00
71145;BME280;58812;47.698;17.726;2023-09-08T04:33:14;100833.06;;;12.65;100.00
71145;BME280;58812;47.698;17.726;2023-09-08T04:35:39;100825.69;;;12.67;100.00
71145;BME280;58812;47.698;17.726;2023-09-08T04:38:04;100825.53;;;12.68;100.00
71145;BME280;58812;47.698;17.726;2023-09-08T04:40:30;100821.16;;;12.67;100.00
71145;BME280;58812;47.698;17.726;2023-09-08T04:42:55;100825.69;;;12.67;100.00
71145;BME280;58812;47.698;17.726;2023-09-08T04:45:20;100821.88;;;12.69;100.00
71145;BME280;58812;47.698;17.726;2023-09-08T04:47:46;100821.97;;;12.87;100.00
71145;BME280;58812;47.698;17.726;2023-09-08T04:50:12;100824.09;;;13.11;100.00
71145;BME280;58812;47.698;17.726;2023-09-08T04:52:37;100824.75;;;13.50;100.00
71145;BME280;58812;47.698;17.726;2023-09-08T04:55:03;100828.69;;;13.74;100.00
71145;BME280;58812;47.698;17.726;2023-09-08T04:57:28;100832.31;;;14.00;100.00
71145;BME280;58812;47.698;17.726;2023-09-08T04:59:54;100829.50;;;14.28;100.00
71145;BME280;58812;47.698;17.726;2023-09-08T05:02:19;100833.25;;;14.53;100.00
71145;BME280;58812;47.698;17.726;2023-09-08T05:04:44;100831.84;;;14.75;100.00
71145;BME280;58812;47.698;17.726;2023-09-08T05:07:10;100831.00;;;15.00;98.76
71145;BME280;58812;47.698;17.726;2023-09-08T05:09:37;100837.09;;;15.10;97.81
71145;BME280;58812;47.698;17.726;2023-09-08T05:12:03;100837.03;;;15.36;96.85
71145;BME280;58812;47.698;17.726;2023-09-08T05:14:28;100850.19;;;15.47;95.80
71145;BME280;58812;47.698;17.726;2023-09-08T05:16:54;100849.72;;;15.52;95.26
71145;BME280;58812;47.698;17.726;2023-09-08T05:19:22;100850.81;;;15.67;94.85
71145;BME280;58812;47.698;17.726;2023-09-08T05:21:53;100854.53;;;15.83;94.25
71145;BME280;58812;47.698;17.726;2023-09-08T05:24:19;100859.12;;;15.98;93.83
71145;BME280;58812;47.698;17.726;2023-09-08T05:26:45;100862.34;;;16.10;93.31
71145;BME280;58812;47.698;17.726;2023-09-08T05:29:11;100862.19;;;16.44;92.40
71145;BME280;58812;47.698;17.726;2023-09-08T05:31:36;100858.28;;;16.71;90.78
71145;BME280;58812;47.698;17.726;2023-09-08T05:34:02;100868.38;;;16.94;89.73
71145;BME280;58812;47.698;17.726;2023-09-08T05:36:28;100866.09;;;17.22;88.53
71145;BME280;58812;47.698;17.726;2023-09-08T05:38:55;100865.41;;;17.59;86.69
71145;BME280;58812;47.698;17.726;2023-09-08T05:41:21;100864.25;;;17.84;85.51
71145;BME280;58812;47.698;17.726;2023-09-08T05:43:46;100882.69;;;18.12;84.25
71145;BME280;58812;47.698;17.726;2023-09-08T05:46:12;100884.13;;;18.46;83.38
71145;BME280;58812;47.698;17.726;2023-09-08T05:48:41;100881.28;;;18.62;81.36
71145;BME280;58812;47.698;17.726;2023-09-08T05:51:13;100894.66;;;18.63;81.83
71145;BME280;58812;47.698;17.726;2023-09-08T05:53:39;100898.94;;;18.95;80.77
71145;BME280;58812;47.698;17.726;2023-09-08T05:56:06;100892.88;;;19.23;79.97
71145;BME280;58812;47.698;17.726;2023-09-08T05:58:32;100894.53;;;19.24;79.25
71145;BME280;58812;47.698;17.726;2023-09-08T06:00:57;100887.16;;;19.18;78.62
71145;BME280;58812;47.698;17.726;2023-09-08T06:03:23;100888.94;;;19.40;78.71
71145;BME280;58812;47.698;17.726;2023-09-08T06:05:48;100884.37;;;19.77;77.73
71145;BME280;58812;47.698;17.726;2023-09-08T06:08:14;100886.34;;;19.83;77.55
71145;BME280;58812;47.698;17.726;2023-09-08T06:10:39;100895.41;;;20.33;75.41
71145;BME280;58812;47.698;17.726;2023-09-08T06:13:04;100887.53;;;20.17;74.84
71145;BME280;58812;47.698;17.726;2023-09-08T06:15:30;100893.59;;;20.62;74.18
71145;BME280;58812;47.698;17.726;2023-09-08T06:17:55;100891.94;;;20.61;72.19
71145;BME280;58812;47.698;17.726;2023-09-08T06:20:21;100894.69;;;20.67;72.37
71145;BME280;58812;47.698;17.726;2023-09-08T06:22:47;100897.00;;;20.64;73.11
71145;BME280;58812;47.698;17.726;2023-09-08T06:25:12;100898.25;;;20.96;71.54
71145;BME280;58812;47.698;17.726;2023-09-08T06:27:38;100895.09;;;20.92;71.63
71145;BME280;58812;47.698;17.726;2023-09-08T06:30:03;100899.13;;;21.31;70.76
71145;BME280;58812;47.698;17.726;2023-09-08T06:32:29;100898.94;;;21.04;70.44
71145;BME280;58812;47.698;17.726;2023-09-08T06:34:54;100900.94;;;20.89;71.04
71145;BME280;58812;47.698;17.726;2023-09-08T06:37:20;100897.41;;;20.67;71.61
71145;BME280;58812;47.698;17.726;2023-09-08T06:39:45;100902.09;;;21.08;70.41
71145;BME280;58812;47.698;17.726;2023-09-08T06:42:11;100904.16;;;21.34;69.45
71145;BME280;58812;47.698;17.726;2023-09-08T06:44:36;100899.31;;;21.71;68.98
71145;BME280;58812;47.698;17.726;2023-09-08T06:47:01;100899.88;;;22.14;67.73
71145;BME280;58812;47.698;17.726;2023-09-08T06:49:28;100904.34;;;22.55;65.95
71145;BME280;58812;47.698;17.726;2023-09-08T06:51:53;100898.69;;;22.96;64.57
71145;BME280;58812;47.698;17.726;2023-09-08T06:54:19;100907.47;;;22.85;65.00
71145;BME280;58812;47.698;17.726;2023-09-08T06:56:44;100902.00;;;23.25;63.18
71145;BME280;58812;47.698;17.726;2023-09-08T06:59:10;100904.66;;;23.38;62.51
71145;BME280;58812;47.698;17.726;2023-09-08T07:01:36;100893.47;;;23.53;61.68
71145;BME280;58812;47.698;17.726;2023-09-08T07:04:01;100897.53;;;23.88;60.95
71145;BME280;58812;47.698;17.726;2023-09-08T07:06:27;100897.72;;;24.25;60.37
71145;BME280;58812;47.698;17.726;2023-09-08T07:08:52;100896.62;;;24.39;59.34
71145;BME280;58812;47.698;17.726;2023-09-08T07:11:17;100899.34;;;24.64;58.45
71145;BME280;58812;47.698;17.726;2023-09-08T07:13:43;100906.88;;;24.94;56.86
71145;BME280;58812;47.698;17.726;2023-09-08T07:16:08;100899.22;;;24.77;57.99
71145;BME280;58812;47.698;17.726;2023-09-08T07:18:34;100907.94;;;24.93;57.27
71145;BME280;58812;47.698;17.726;2023-09-08T07:21:04;100902.84;;;25.21;56.06
71145;BME280;58812;47.698;17.726;2023-09-08T07:23:29;100900.59;;;25.67;55.16
71145;BME280;58812;47.698;17.726;2023-09-08T07:25:55;100897.03;;;25.66;54.51
71145;BME280;58812;47.698;17.726;2023-09-08T07:28:20;100905.09;;;25.98;54.15
71145;BME280;58812;47.698;17.726;2023-09-08T07:30:46;100893.34;;;26.09;52.89
71145;BME280;58812;47.698;17.726;2023-09-08T07:33:11;100896.62;;;25.99;53.70
71145;BME280;58812;47.698;17.726;2023-09-08T07:35:38;100904.44;;;26.26;51.47
71145;BME280;58812;47.698;17.726;2023-09-08T07:38:04;100895.41;;;26.37;50.90
71145;BME280;58812;47.698;17.726;2023-09-08T07:40:29;100895.97;;;26.57;50.99
71145;BME280;58812;47.698;17.726;2023-09-08T07:42:55;100899.44;;;26.76;50.26
71145;BME280;58812;47.698;17.726;2023-09-08T07:45:20;100892.88;;;26.89;50.80
71145;BME280;58812;47.698;17.726;2023-09-08T07:47:46;100892.16;;;25.87;52.06
71145;BME280;58812;47.698;17.726;2023-09-08T07:50:27;100885.75;;;26.34;51.14
71145;BME280;58812;47.698;17.726;2023-09-08T07:52:55;100883.69;;;26.83;50.23
71145;BME280;58812;47.698;17.726;2023-09-08T07:55:22;100895.31;;;27.61;48.36
71145;BME280;58812;47.698;17.726;2023-09-08T07:57:49;100893.12;;;27.63;48.23
71145;BME280;58812;47.698;17.726;2023-09-08T08:00:16;100892.56;;;27.61;48.05
71145;BME280;58812;47.698;17.726;2023-09-08T08:02:46;100894.00;;;27.75;48.57
71145;BME280;58812;47.698;17.726;2023-09-08T08:05:11;100893.84;;;28.27;46.72
71145;BME280;58812;47.698;17.726;2023-09-08T08:07:38;100891.97;;;28.16;47.59
71145;BME280;58812;47.698;17.726;2023-09-08T08:17:07;100894.16;;;28.42;44.65
71145;BME280;58812;47.698;17.726;2023-09-08T08:19:32;100893.38;;;28.64;45.01
71145;BME280;58812;47.698;17.726;2023-09-08T08:21:58;100893.97;;;28.99;44.17
71145;BME280;58812;47.698;17.726;2023-09-08T08:24:23;100888.13;;;29.13;43.30
71145;BME280;58812;47.698;17.726;2023-09-08T08:26:49;100889.25;;;29.17;44.22
71145;BME280;58812;47.698;17.726;2023-09-08T08:29:17;100889.97;;;29.07;44.03
71145;BME280;58812;47.698;17.726;2023-09-08T08:31:42;100890.16;;;29.22;43.74
71145;BME280;58812;47.698;17.726;2023-09-08T08:34:08;100889.84;;;29.19;42.81
71145;BME280;58812;47.698;17.726;2023-09-08T08:36:34;100885.56;;;29.50;41.05
71145;BME280;58812;47.698;17.726;2023-09-08T08:39:00;100890.22;;;29.66;41.79
71145;BME280;58812;47.698;17.726;2023-09-08T08:41:25;100885.38;;;29.78;41.97
71145;BME280;58812;47.698;17.726;2023-09-08T08:43:51;100882.62;;;30.05;41.52
71145;BME280;58812;47.698;17.726;2023-09-08T08:46:21;100878.69;;;30.23;41.44
71145;BME280;58812;47.698;17.726;2023-09-08T08:48:48;100884.31;;;30.06;40.51
71145;BME280;58812;47.698;17.726;2023-09-08T08:51:16;100885.84;;;30.51;40.99
71145;BME280;58812;47.698;17.726;2023-09-08T08:53:43;100876.28;;;30.32;39.92
71145;BME280;58812;47.698;17.726;2023-09-08T08:56:09;100880.56;;;30.18;40.92
71145;BME280;58812;47.698;17.726;2023-09-08T08:58:37;100873.53;;;30.32;40.01
71145;BME280;58812;47.698;17.726;2023-09-08T09:01:05;100875.34;;;30.53;40.16
71145;BME280;58812;47.698;17.726;2023-09-08T09:03:33;100872.50;;;30.75;39.88
71145;BME280;58812;47.698;17.726;2023-09-08T09:06:00;100879.38;;;31.10;38.48
71145;BME280;58812;47.698;17.726;2023-09-08T09:08:27;100880.75;;;31.07;38.47
71145;BME280;58812;47.698;17.726;2023-09-08T09:10:53;100874.56;;;30.95;39.57
71145;BME280;58812;47.698;17.726;2023-09-08T09:13:19;100875.75;;;31.09;39.29
71145;BME280;58812;47.698;17.726;2023-09-08T09:15:45;100879.06;;;31.06;37.38
71145;BME280;58812;47.698;17.726;2023-09-08T09:18:11;100877.16;;;31.12;39.00
71145;BME280;58812;47.698;17.726;2023-09-08T09:20:37;100880.06;;;31.32;38.21
71145;BME280;58812;47.698;17.726;2023-09-08T09:23:03;100865.44;;;31.37;38.31
71145;BME280;58812;47.698;17.726;2023-09-08T09:25:30;100862.94;;;31.41;38.62
71145;BME280;58812;47.698;17.726;2023-09-08T09:28:01;100856.38;;;31.57;36.98
71145;BME280;58812;47.698;17.726;2023-09-08T09:30:27;100861.03;;;31.51;37.24
71145;BME280;58812;47.698;17.726;2023-09-08T09:33:03;100863.94;;;31.19;37.81
71145;BME280;58812;47.698;17.726;2023-09-08T09:35:46;100865.94;;;31.29;36.95
71145;BME280;58812;47.698;17.726;2023-09-08T09:38:12;100868.94;;;31.80;36.40
71145;BME280;58812;47.698;17.726;2023-09-08T09:40:39;100852.31;;;31.90;36.17
71145;BME280;58812;47.698;17.726;2023-09-08T09:43:05;100855.13;;;32.05;35.23
71145;BME280;58812;47.698;17.726;2023-09-08T09:45:33;100855.62;;;31.87;35.78
71145;BME280;58812;47.698;17.726;2023-09-08T09:47:59;100855.72;;;32.38;34.35
71145;BME280;58812;47.698;17.726;2023-09-08T09:50:31;100852.06;;;30.44;36.39
71145;BME280;58812;47.698;17.726;2023-09-08T09:52:59;100849.34;;;31.29;35.26
71145;BME280;58812;47.698;17.726;2023-09-08T09:55:26;100847.69;;;31.33;33.94
71145;BME280;58812;47.698;17.726;2023-09-08T09:57:56;100844.47;;;31.56;34.32
71145;BME280;58812;47.698;17.726;2023-09-08T10:00:24;100846.25;;;32.24;34.29
71145;BME280;58812;47.698;17.726;2023-09-08T10:02:51;100846.56;;;32.27;34.38
71145;BME280;58812;47.698;17.726;2023-09-08T10:05:16;100845.41;;;32.08;34.27
71145;BME280;58812;47.698;17.726;2023-09-08T10:07:42;100848.47;;;31.96;34.15
71145;BME280;58812;47.698;17.726;2023-09-08T10:10:09;100847.97;;;32.35;33.63
71145;BME280;58812;47.698;17.726;2023-09-08T10:12:36;100842.84;;;31.76;34.62
71145;BME280;58812;47.698;17.726;2023-09-08T10:15:04;100844.31;;;32.70;32.32
71145;BME280;58812;47.698;17.726;2023-09-08T10:17:31;100853.16;;;32.82;32.75
71145;BME280;58812;47.698;17.726;2023-09-08T10:20:00;100843.69;;;33.09;32.26
71145;BME280;58812;47.698;17.726;2023-09-08T10:22:30;100834.31;;;32.94;32.43
71145;BME280;58812;47.698;17.726;2023-09-08T10:24:57;100841.25;;;32.87;32.26
71145;BME280;58812;47.698;17.726;2023-09-08T10:27:27;100834.34;;;32.69;33.02
71145;BME280;58812;47.698;17.726;2023-09-08T10:29:52;100828.94;;;31.60;33.95
71145;BME280;58812;47.698;17.726;2023-09-08T10:32:20;100825.09;;;31.56;34.20
71145;BME280;58812;47.698;17.726;2023-09-08T10:34:46;100832.81;;;31.44;34.20
71145;BME280;58812;47.698;17.726;2023-09-08T10:37:25;100823.03;;;32.40;32.93
71145;BME280;58812;47.698;17.726;2023-09-08T10:39:54;100822.19;;;32.45;32.40
71145;BME280;58812;47.698;17.726;2023-09-08T10:42:24;100821.78;;;33.12;32.31
71145;BME280;58812;47.698;17.726;2023-09-08T10:44:59;100812.09;;;33.64;31.43
71145;BME280;58812;47.698;17.726;2023-09-08T10:47:31;100806.72;;;30.40;34.19
71145;BME280;58812;47.698;17.726;2023-09-08T10:49:59;100798.31;;;32.23;32.00
71145;BME280;58812;47.698;17.726;2023-09-08T10:52:25;100803.91;;;32.38;32.27
71145;BME280;58812;47.698;17.726;2023-09-08T10:54:52;100801.91;;;32.59;31.38
71145;BME280;58812;47.698;17.726;2023-09-08T10:57:20;100799.37;;;32.73;29.53
71145;BME280;58812;47.698;17.726;2023-09-08T10:59:56;100804.44;;;32.35;30.78
71145;BME280;58812;47.698;17.726;2023-09-08T11:02:33;100796.66;;;32.58;30.89
71145;BME280;58812;47.698;17.726;2023-09-08T11:04:59;100798.53;;;31.65;31.39
71145;BME280;58812;47.698;17.726;2023-09-08T11:07:26;100800.78;;;31.79;31.81
71145;BME280;58812;47.698;17.726;2023-09-08T11:09:51;100798.59;;;32.06;30.71
71145;BME280;58812;47.698;17.726;2023-09-08T11:12:20;100777.00;;;31.98;30.89
71145;BME280;58812;47.698;17.726;2023-09-08T11:14:49;100789.19;;;32.33;30.95
71145;BME280;58812;47.698;17.726;2023-09-08T11:17:15;100790.22;;;32.73;30.28
71145;BME280;58812;47.698;17.726;2023-09-08T11:19:50;100791.34;;;32.92;29.53
71145;BME280;58812;47.698;17.726;2023-09-08T11:22:18;100784.03;;;33.11;29.58
71145;BME280;58812;47.698;17.726;2023-09-08T11:24:44;100786.34;;;32.94;30.35
71145;BME280;58812;47.698;17.726;2023-09-08T11:27:13;100789.00;;;33.19;29.69
71145;BME280;58812;47.698;17.726;2023-09-08T11:29:39;100789.00;;;33.19;29.46
71145;BME280;58812;47.698;17.726;2023-09-08T11:32:08;100781.44;;;32.45;30.14
71145;BME280;58812;47.698;17.726;2023-09-08T11:34:37;100775.53;;;29.80;33.00
71145;BME280;58812;47.698;17.726;2023-09-08T11:37:17;100768.31;;;31.38;31.67
71145;BME280;58812;47.698;17.726;2023-09-08T11:39:45;100778.94;;;32.43;30.22
71145;BME280;58812;47.698;17.726;2023-09-08T11:42:15;100770.78;;;33.03;29.77
71145;BME280;58812;47.698;17.726;2023-09-08T11:44:41;100766.91;;;32.94;29.43
71145;BME280;58812;47.698;17.726;2023-09-08T11:47:09;100776.37;;;33.47;29.20
71145;BME280;58812;47.698;17.726;2023-09-08T11:49:42;100772.81;;;33.32;29.13
71145;BME280;58812;47.698;17.726;2023-09-08T11:52:09;100777.56;;;33.26;28.86
71145;BME280;58812;47.698;17.726;2023-09-08T11:54:35;100767.44;;;33.01;29.22
71145;BME280;58812;47.698;17.726;2023-09-08T11:57:02;100763.91;;;31.53;29.81
71145;BME280;58812;47.698;17.726;2023-09-08T11:59:31;100765.31;;;32.67;29.01
71145;BME280;58812;47.698;17.726;2023-09-08T12:01:57;100764.16;;;32.89;27.89
71145;BME280;58812;47.698;17.726;2023-09-08T12:04:23;100754.44;;;32.86;27.89
71145;BME280;58812;47.698;17.726;2023-09-08T12:06:51;100753.88;;;32.89;28.30
71145;BME280;58812;47.698;17.726;2023-09-08T12:09:17;100755.37;;;33.26;28.10
71145;BME280;58812;47.698;17.726;2023-09-08T12:11:43;100753.69;;;32.55;28.01
71145;BME280;58812;47.698;17.726;2023-09-08T12:14:11;100747.06;;;32.51;28.60
71145;BME280;58812;47.698;17.726;2023-09-08T12:16:36;100750.69;;;33.27;27.15
71145;BME280;58812;47.698;17.726;2023-09-08T12:19:02;100741.00;;;32.44;28.67
71145;BME280;58812;47.698;17.726;2023-09-08T12:21:27;100741.78;;;31.78;27.96
71145;BME280;58812;47.698;17.726;2023-09-08T12:23:53;100741.47;;;31.39;28.90
71145;BME280;58812;47.698;17.726;2023-09-08T12:26:20;100738.56;;;31.03;29.05
71145;BME280;58812;47.698;17.726;2023-09-08T12:28:46;100747.84;;;30.72;29.29
71145;BME280;58812;47.698;17.726;2023-09-08T12:31:15;100733.78;;;32.12;28.12
71145;BME280;58812;47.698;17.726;2023-09-08T12:33:42;100727.16;;;32.34;27.85
71145;BME280;58812;47.698;17.726;2023-09-08T12:36:17;100729.59;;;31.49;28.32
71145;BME280;58812;47.698;17.726;2023-09-08T12:38:52;100723.50;;;31.57;29.57
71145;BME280;58812;47.698;17.726;2023-09-08T12:41:19;100728.78;;;31.69;29.13
71145;BME280;58812;47.698;17.726;2023-09-08T12:43:45;100717.47;;;30.82;30.09